createdAt,value
2023-02-16T00:00:03.480Z,971.52
2023-02-16T00:01:03.840Z,971.56
2023-02-16T00:02:03.611Z,971.51
2023-02-16T00:03:03.634Z,971.54
2023-02-16T00:04:03.443Z,971.53
2023-02-16T00:05:03.502Z,971.49
2023-02-16T00:06:03.640Z,971.52
2023-02-16T00:08:03.650Z,971.47
2023-02-16T00:09:03.529Z,971.51
2023-02-16T00:10:03.592Z,971.42
2023-02-16T00:11:03.880Z,971.48
2023-02-16T00:14:03.552Z,971.51
2023-02-16T00:15:03.591Z,971.47
2023-02-16T00:16:03.553Z,971.5
2023-02-16T00:17:03.633Z,971.52
2023-02-16T00:18:03.549Z,971.53
2023-02-16T00:20:03.496Z,971.55
2023-02-16T00:21:03.777Z,971.58
2023-02-16T00:22:03.558Z,971.63
2023-02-16T00:24:03.617Z,971.62
2023-02-16T00:26:03.648Z,971.65
2023-02-16T00:30:03.696Z,971.66
2023-02-16T00:31:03.904Z,971.62
2023-02-16T00:32:05.109Z,971.59
2023-02-16T00:33:03.680Z,971.64
2023-02-16T00:34:03.654Z,971.61
2023-02-16T00:36:03.589Z,971.63
2023-02-16T00:38:03.737Z,971.6
2023-02-16T00:39:03.649Z,971.63
2023-02-16T00:40:03.554Z,971.66
2023-02-16T00:41:03.755Z,971.64
2023-02-16T00:42:03.713Z,971.66
2023-02-16T00:43:03.608Z,971.61
2023-02-16T00:44:03.508Z,971.65
2023-02-16T00:45:03.723Z,971.68
2023-02-16T00:46:03.771Z,971.72
2023-02-16T00:47:03.684Z,971.71
2023-02-16T00:49:03.648Z,971.75
2023-02-16T00:50:03.574Z,971.79
2023-02-16T00:51:11.108Z,971.78
2023-02-16T00:52:03.809Z,971.82
2023-02-16T00:53:03.656Z,971.83
2023-02-16T00:55:03.650Z,971.89
2023-02-16T00:56:03.722Z,971.88
2023-02-16T00:57:03.664Z,971.89
2023-02-16T00:58:03.622Z,971.95
2023-02-16T00:59:03.776Z,971.9
2023-02-16T01:01:03.876Z,971.91
2023-02-16T01:02:03.632Z,971.9
2023-02-16T01:03:03.740Z,971.92
2023-02-16T01:04:05.103Z,971.86
2023-02-16T01:05:03.598Z,971.95
2023-02-16T01:06:03.668Z,971.9
2023-02-16T01:07:03.768Z,971.92
2023-02-16T01:08:03.641Z,971.93
2023-02-16T01:13:03.652Z,971.92
2023-02-16T01:14:03.680Z,971.91
2023-02-16T01:15:03.590Z,971.89
2023-02-16T01:16:03.845Z,971.91
2023-02-16T01:17:03.810Z,971.95
2023-02-16T01:18:03.670Z,971.89
2023-02-16T01:19:03.672Z,971.9
2023-02-16T01:20:03.763Z,971.92
2023-02-16T01:21:03.961Z,971.9
2023-02-16T01:22:03.721Z,971.94
2023-02-16T01:24:03.694Z,971.93
2023-02-16T01:25:03.647Z,971.97
2023-02-16T01:26:03.815Z,971.91
2023-02-16T01:27:03.707Z,971.93
2023-02-16T01:28:03.811Z,971.91
2023-02-16T01:29:03.727Z,971.96
2023-02-16T01:30:03.746Z,971.98
2023-02-16T01:31:04.146Z,971.96
2023-02-16T01:32:03.828Z,971.95
2023-02-16T01:34:03.689Z,971.94
2023-02-16T01:35:03.780Z,971.87
2023-02-16T01:36:03.728Z,971.84
2023-02-16T01:37:03.735Z,971.8
2023-02-16T01:39:03.768Z,971.79
2023-02-16T01:40:03.801Z,971.76
2023-02-16T01:41:03.861Z,971.79
2023-02-16T01:42:03.655Z,971.77
2023-02-16T01:44:03.822Z,971.79
2023-02-16T01:45:03.879Z,971.74
2023-02-16T01:46:03.769Z,971.72
2023-02-16T01:47:03.828Z,971.74
2023-02-16T01:49:03.881Z,971.7
2023-02-16T01:50:03.841Z,971.71
2023-02-16T01:52:03.918Z,971.7
2023-02-16T01:53:03.841Z,971.68
2023-02-16T01:55:03.844Z,971.71
2023-02-16T01:56:03.911Z,971.65
2023-02-16T01:57:03.867Z,971.7
2023-02-16T01:58:03.909Z,971.69
2023-02-16T01:59:03.799Z,971.7
2023-02-16T02:00:03.776Z,971.67
2023-02-16T02:02:03.938Z,971.64
2023-02-16T02:04:03.803Z,971.63
2023-02-16T02:05:03.733Z,971.64
2023-02-16T02:06:03.815Z,971.63
2023-02-16T02:07:03.898Z,971.66
2023-02-16T02:10:03.887Z,971.65
2023-02-16T02:11:04.163Z,971.69
2023-02-16T02:12:03.828Z,971.66
2023-02-16T02:14:03.873Z,971.65
2023-02-16T02:15:03.989Z,971.69
2023-02-16T02:16:03.921Z,971.71
2023-02-16T02:17:03.862Z,971.7
2023-02-16T02:18:03.853Z,971.71
2023-02-16T02:19:03.939Z,971.73
2023-02-16T02:21:04.190Z,971.71
2023-02-16T02:22:03.912Z,971.72
2023-02-16T02:23:03.955Z,971.73
2023-02-16T02:24:03.822Z,971.71
2023-02-16T02:25:03.863Z,971.7
2023-02-16T02:26:03.863Z,971.71
2023-02-16T02:27:03.870Z,971.7
2023-02-16T02:28:04.005Z,971.69
2023-02-16T02:29:03.858Z,971.67
2023-02-16T02:30:03.824Z,971.69
2023-02-16T02:31:04.347Z,971.63
2023-02-16T02:32:03.901Z,971.68
2023-02-16T02:33:03.994Z,971.66
2023-02-16T02:34:03.837Z,971.72
2023-02-16T02:35:03.870Z,971.68
2023-02-16T02:36:03.924Z,971.69
2023-02-16T02:37:03.968Z,971.7
2023-02-16T02:38:03.845Z,971.65
2023-02-16T02:39:03.775Z,971.67
2023-02-16T02:40:03.805Z,971.68
2023-02-16T02:41:04.239Z,971.69
2023-02-16T02:42:03.899Z,971.68
2023-02-16T02:43:03.857Z,971.67
2023-02-16T02:44:04.005Z,971.66
2023-02-16T02:45:03.981Z,971.64
2023-02-16T02:46:03.876Z,971.62
2023-02-16T02:47:03.889Z,971.64
2023-02-16T02:48:03.868Z,971.6
2023-02-16T02:50:03.864Z,971.58
2023-02-16T02:51:04.286Z,971.57
2023-02-16T02:52:03.963Z,971.53
2023-02-16T02:53:03.991Z,971.57
2023-02-16T02:54:03.903Z,971.56
2023-02-16T02:56:03.902Z,971.53
2023-02-16T02:57:03.905Z,971.56
2023-02-16T02:59:03.908Z,971.52
2023-02-16T03:00:03.867Z,971.47
2023-02-16T03:01:04.297Z,971.43
2023-02-16T03:02:04.095Z,971.45
2023-02-16T03:03:03.964Z,971.39
2023-02-16T03:05:03.883Z,971.37
2023-02-16T03:06:03.997Z,971.41
2023-02-16T03:07:03.929Z,971.39
2023-02-16T03:08:04.090Z,971.47
2023-02-16T03:09:04.021Z,971.45
2023-02-16T03:10:03.851Z,971.46
2023-02-16T03:11:04.174Z,971.47
2023-02-16T03:12:04.031Z,971.51
2023-02-16T03:14:03.988Z,971.55
2023-02-16T03:16:03.967Z,971.58
2023-02-16T03:17:04.081Z,971.5
2023-02-16T03:18:03.986Z,971.52
2023-02-16T03:19:03.956Z,971.55
2023-02-16T03:20:04.039Z,971.54
2023-02-16T03:21:04.190Z,971.55
2023-02-16T03:23:03.954Z,971.57
2023-02-16T03:24:04.050Z,971.6
2023-02-16T03:25:03.912Z,971.65
2023-02-16T03:26:04.039Z,971.58
2023-02-16T03:27:04.078Z,971.61
2023-02-16T03:29:03.998Z,971.64
2023-02-16T03:30:03.997Z,971.63
2023-02-16T03:32:04.087Z,971.59
2023-02-16T03:34:04.006Z,971.6
2023-02-16T03:35:04.166Z,971.58
2023-02-16T03:37:04.014Z,971.57
2023-02-16T03:38:04.066Z,971.54
2023-02-16T03:39:04.047Z,971.52
2023-02-16T03:40:03.980Z,971.54
2023-02-16T03:41:04.316Z,971.55
2023-02-16T03:42:04.140Z,971.52
2023-02-16T03:43:04.083Z,971.55
2023-02-16T03:44:04.116Z,971.52
2023-02-16T03:47:04.031Z,971.51
2023-02-16T03:48:04.046Z,971.52
2023-02-16T03:49:04.085Z,971.56
2023-02-16T03:52:04.038Z,971.59
2023-02-16T03:53:04.020Z,971.62
2023-02-16T03:54:04.062Z,971.61
2023-02-16T03:55:04.163Z,971.65
2023-02-16T03:56:04.031Z,971.64
2023-02-16T03:57:04.079Z,971.61
2023-02-16T03:59:04.092Z,971.62
2023-02-16T04:00:04.034Z,971.58
2023-02-16T04:01:04.173Z,971.61
2023-02-16T04:02:04.263Z,971.57
2023-02-16T04:03:04.187Z,971.54
2023-02-16T04:06:04.027Z,971.57
2023-02-16T04:07:04.179Z,971.53
2023-02-16T04:08:04.046Z,971.59
2023-02-16T04:09:04.212Z,971.56
2023-02-16T04:11:04.331Z,971.55
2023-02-16T04:12:04.239Z,971.58
2023-02-16T04:13:04.125Z,971.61
2023-02-16T04:14:04.118Z,971.58
2023-02-16T04:15:04.156Z,971.6
2023-02-16T04:17:04.071Z,971.64
2023-02-16T04:18:04.163Z,971.62
2023-02-16T04:19:04.219Z,971.64
2023-02-16T04:20:04.122Z,971.65
2023-02-16T04:21:04.336Z,971.66
2023-02-16T04:22:04.200Z,971.64
2023-02-16T04:23:04.152Z,971.69
2023-02-16T04:24:04.104Z,971.66
2023-02-16T04:25:04.087Z,971.62
2023-02-16T04:26:04.295Z,971.66
2023-02-16T04:28:05.449Z,971.65
2023-02-16T04:29:04.135Z,971.67
2023-02-16T04:30:04.123Z,971.64
2023-02-16T04:32:04.393Z,971.73
2023-02-16T04:33:04.071Z,971.74
2023-02-16T04:34:04.190Z,971.73
2023-02-16T04:35:04.137Z,971.74
2023-02-16T04:36:04.110Z,971.75
2023-02-16T04:37:06.021Z,971.76
2023-02-16T04:38:04.149Z,971.75
2023-02-16T04:39:04.160Z,971.74
2023-02-16T04:40:04.148Z,971.73
2023-02-16T04:41:04.397Z,971.76
2023-02-16T04:42:04.147Z,971.69
2023-02-16T04:43:04.367Z,971.76
2023-02-16T04:44:04.196Z,971.79
2023-02-16T04:46:04.236Z,971.74
2023-02-16T04:47:04.157Z,971.77
2023-02-16T04:48:04.283Z,971.73
2023-02-16T04:49:04.118Z,971.76
2023-02-16T04:51:04.539Z,971.73
2023-02-16T04:52:04.143Z,971.78
2023-02-16T04:53:04.193Z,971.79
2023-02-16T04:55:04.179Z,971.75
2023-02-16T04:56:04.247Z,971.77
2023-02-16T04:57:04.294Z,971.8
2023-02-16T04:58:04.188Z,971.79
2023-02-16T04:59:04.332Z,971.83
2023-02-16T05:00:04.134Z,971.82
2023-02-16T05:02:04.260Z,971.81
2023-02-16T05:04:04.274Z,971.86
2023-02-16T05:06:04.244Z,971.85
2023-02-16T05:07:04.170Z,971.86
2023-02-16T05:08:04.206Z,971.85
2023-02-16T05:10:04.165Z,971.88
2023-02-16T05:11:04.575Z,971.85
2023-02-16T05:12:04.223Z,971.81
2023-02-16T05:13:04.286Z,971.82
2023-02-16T05:14:04.365Z,971.77
2023-02-16T05:16:04.257Z,971.79
2023-02-16T05:19:04.428Z,971.75
2023-02-16T05:20:04.207Z,971.78
2023-02-16T05:21:04.434Z,971.8
2023-02-16T05:22:04.236Z,971.83
2023-02-16T05:23:04.235Z,971.82
2023-02-16T05:24:04.296Z,971.84
2023-02-16T05:26:04.286Z,971.87
2023-02-16T05:27:04.395Z,971.85
2023-02-16T05:28:04.277Z,971.84
2023-02-16T05:30:04.336Z,971.82
2023-02-16T05:31:04.616Z,971.84
2023-02-16T05:32:04.780Z,971.85
2023-02-16T05:33:05.716Z,971.88
2023-02-16T05:34:04.416Z,971.85
2023-02-16T05:35:04.324Z,971.82
2023-02-16T05:36:04.372Z,971.83
2023-02-16T05:37:04.400Z,971.77
2023-02-16T05:38:04.392Z,971.86
2023-02-16T05:39:04.342Z,971.84
2023-02-16T05:40:04.460Z,971.9
2023-02-16T05:41:04.745Z,971.88
2023-02-16T05:42:04.433Z,971.89
2023-02-16T05:43:04.276Z,971.88
2023-02-16T05:46:04.387Z,971.85
2023-02-16T05:47:04.374Z,971.87
2023-02-16T05:49:04.416Z,971.91
2023-02-16T05:50:04.327Z,971.93
2023-02-16T05:51:04.780Z,971.91
2023-02-16T05:52:04.445Z,971.89
2023-02-16T05:53:04.345Z,971.86
2023-02-16T05:54:04.360Z,971.88
2023-02-16T05:55:04.300Z,971.89
2023-02-16T05:56:05.859Z,971.9
2023-02-16T05:57:04.355Z,971.96
2023-02-16T05:58:04.350Z,971.95
2023-02-16T05:59:04.528Z,971.98
2023-02-16T06:00:04.413Z,971.95
2023-02-16T06:01:04.586Z,972
2023-02-16T06:02:04.477Z,972.01
2023-02-16T06:03:04.369Z,972.04
2023-02-16T06:05:05.333Z,972.06
2023-02-16T06:06:04.384Z,972.04
2023-02-16T06:07:04.438Z,972.08
2023-02-16T06:08:04.365Z,972.04
2023-02-16T06:09:04.406Z,972.06
2023-02-16T06:10:04.364Z,972.08
2023-02-16T06:11:04.551Z,972.09
2023-02-16T06:13:04.419Z,972.11
2023-02-16T06:14:04.400Z,972.14
2023-02-16T06:15:04.336Z,972.13
2023-02-16T06:17:04.417Z,972.14
2023-02-16T06:18:04.382Z,972.12
2023-02-16T06:19:04.373Z,972.11
2023-02-16T06:20:04.383Z,972.12
2023-02-16T06:21:04.755Z,972.16
2023-02-16T06:22:04.475Z,972.19
2023-02-16T06:23:04.532Z,972.18
2023-02-16T06:24:04.558Z,972.19
2023-02-16T06:25:04.653Z,972.2
2023-02-16T06:28:04.562Z,972.21
2023-02-16T06:29:04.520Z,972.23
2023-02-16T06:30:04.484Z,972.22
2023-02-16T06:31:04.679Z,972.26
2023-02-16T06:32:04.692Z,972.31
2023-02-16T06:33:04.486Z,972.35
2023-02-16T06:34:04.591Z,972.37
2023-02-16T06:35:04.518Z,972.41
2023-02-16T06:36:04.552Z,972.44
2023-02-16T06:37:04.414Z,972.47
2023-02-16T06:39:04.523Z,972.44
2023-02-16T06:40:04.549Z,972.46
2023-02-16T06:41:04.752Z,972.49
2023-02-16T06:42:04.419Z,972.46
2023-02-16T06:43:04.450Z,972.5
2023-02-16T06:44:04.480Z,972.52
2023-02-16T06:45:04.442Z,972.5
2023-02-16T06:46:04.489Z,972.48
2023-02-16T06:47:04.546Z,972.47
2023-02-16T06:48:04.475Z,972.48
2023-02-16T06:49:04.403Z,972.5
2023-02-16T06:50:04.544Z,972.49
2023-02-16T06:51:04.684Z,972.46
2023-02-16T06:52:04.652Z,972.43
2023-02-16T06:53:04.522Z,972.42
2023-02-16T06:54:04.470Z,972.44
2023-02-16T06:55:04.466Z,972.42
2023-02-16T06:56:04.450Z,972.37
2023-02-16T06:57:04.477Z,972.42
2023-02-16T06:58:04.542Z,972.4
2023-02-16T06:59:04.481Z,972.43
2023-02-16T07:00:04.425Z,972.45
2023-02-16T07:02:04.486Z,972.5
2023-02-16T07:03:04.734Z,972.53
2023-02-16T07:04:04.427Z,972.51
2023-02-16T07:05:04.514Z,972.55
2023-02-16T07:06:04.504Z,972.57
2023-02-16T07:08:04.477Z,972.58
2023-02-16T07:09:04.552Z,972.59
2023-02-16T07:10:04.474Z,972.56
2023-02-16T07:11:04.741Z,972.59
2023-02-16T07:12:04.535Z,972.57
2023-02-16T07:13:04.637Z,972.53
2023-02-16T07:14:04.603Z,972.51
2023-02-16T07:15:04.470Z,972.5
2023-02-16T07:16:04.651Z,972.53
2023-02-16T07:18:04.554Z,972.57
2023-02-16T07:19:04.608Z,972.59
2023-02-16T07:20:04.561Z,972.65
2023-02-16T07:22:04.554Z,972.71
2023-02-16T07:23:04.496Z,972.7
2023-02-16T07:24:04.601Z,972.71
2023-02-16T07:26:04.608Z,972.76
2023-02-16T07:27:04.537Z,972.73
2023-02-16T07:29:04.682Z,972.71
2023-02-16T07:30:04.679Z,972.7
2023-02-16T07:31:04.884Z,972.69
2023-02-16T07:32:04.701Z,972.7
2023-02-16T07:33:04.652Z,972.68
2023-02-16T07:34:04.634Z,972.66
2023-02-16T07:35:04.579Z,972.67
2023-02-16T07:36:04.665Z,972.61
2023-02-16T07:37:04.583Z,972.63
2023-02-16T07:38:04.613Z,972.61
2023-02-16T07:40:04.569Z,972.66
2023-02-16T07:41:07.160Z,972.68
2023-02-16T07:43:04.787Z,972.7
2023-02-16T07:45:04.534Z,972.71
2023-02-16T07:46:04.664Z,972.72
2023-02-16T07:47:04.703Z,972.76
2023-02-16T07:48:04.667Z,972.72
2023-02-16T07:49:04.730Z,972.75
2023-02-16T07:50:04.682Z,972.76
2023-02-16T07:51:05.006Z,972.74
2023-02-16T07:52:04.595Z,972.77
2023-02-16T07:53:04.616Z,972.78
2023-02-16T07:54:04.677Z,972.79
2023-02-16T07:55:04.614Z,972.87
2023-02-16T07:56:04.623Z,973.02
2023-02-16T07:57:04.732Z,973.26
2023-02-16T07:58:04.794Z,973.45
2023-02-16T07:59:04.601Z,973.47
2023-02-16T08:00:04.671Z,973.58
2023-02-16T08:02:04.843Z,973.6
2023-02-16T08:03:04.670Z,973.62
2023-02-16T08:05:04.725Z,973.53
2023-02-16T08:06:04.539Z,973.37
2023-02-16T08:07:04.770Z,973.29
2023-02-16T08:08:04.754Z,973.22
2023-02-16T08:09:04.649Z,973.13
2023-02-16T08:10:04.645Z,973.09
2023-02-16T08:11:05.057Z,973
2023-02-16T08:13:04.658Z,973.03
2023-02-16T08:14:04.698Z,972.98
2023-02-16T08:15:04.702Z,972.96
2023-02-16T08:16:04.980Z,972.93
2023-02-16T08:17:04.791Z,972.87
2023-02-16T08:18:04.689Z,972.81
2023-02-16T08:19:04.601Z,972.77
2023-02-16T08:20:04.730Z,972.74
2023-02-16T08:21:04.816Z,972.75
2023-02-16T08:22:04.632Z,972.77
2023-02-16T08:23:04.742Z,972.79
2023-02-16T08:24:04.689Z,972.84
2023-02-16T08:25:06.580Z,972.8
2023-02-16T08:26:05.104Z,972.88
2023-02-16T08:27:04.693Z,972.98
2023-02-16T08:28:04.643Z,972.97
2023-02-16T08:29:04.593Z,973
2023-02-16T08:30:04.697Z,972.96
2023-02-16T08:31:04.698Z,973.01
2023-02-16T08:33:04.724Z,973.03
2023-02-16T08:35:04.720Z,973.02
2023-02-16T08:36:04.924Z,972.98
2023-02-16T08:38:04.698Z,972.97
2023-02-16T08:39:04.644Z,972.98
2023-02-16T08:40:04.751Z,973
2023-02-16T08:41:04.721Z,973.01
2023-02-16T08:42:04.687Z,973
2023-02-16T08:43:04.665Z,972.99
2023-02-16T08:44:04.714Z,972.97
2023-02-16T08:45:04.634Z,972.93
2023-02-16T08:46:05.081Z,972.96
2023-02-16T08:47:04.660Z,972.98
2023-02-16T08:48:04.815Z,972.96
2023-02-16T08:51:04.829Z,973.03
2023-02-16T08:52:04.688Z,973.04
2023-02-16T08:53:04.704Z,973.07
2023-02-16T08:55:04.824Z,973.06
2023-02-16T08:56:04.986Z,973
2023-02-16T08:57:04.826Z,973.01
2023-02-16T08:58:04.775Z,972.98
2023-02-16T08:59:04.839Z,973.03
2023-02-16T09:01:04.694Z,973.09
2023-02-16T09:02:04.818Z,973.07
2023-02-16T09:04:04.850Z,973.1
2023-02-16T09:07:04.859Z,973.05
2023-02-16T09:08:04.773Z,973
2023-02-16T09:09:04.832Z,972.93
2023-02-16T09:10:04.835Z,972.95
2023-02-16T09:12:04.849Z,973
2023-02-16T09:13:04.884Z,972.94
2023-02-16T09:15:04.769Z,972.93
2023-02-16T09:16:05.106Z,972.96
2023-02-16T09:17:04.877Z,972.93
2023-02-16T09:18:04.892Z,972.91
2023-02-16T09:19:04.800Z,972.84
2023-02-16T09:20:04.878Z,972.88
2023-02-16T09:21:04.849Z,972.86
2023-02-16T09:23:04.761Z,972.88
2023-02-16T09:24:04.755Z,972.86
2023-02-16T09:25:04.795Z,972.84
2023-02-16T09:26:04.980Z,972.86
2023-02-16T09:27:04.870Z,972.88
2023-02-16T09:28:04.717Z,972.86
2023-02-16T09:29:04.789Z,972.89
2023-02-16T09:30:04.940Z,972.85
2023-02-16T09:31:04.926Z,972.89
2023-02-16T09:32:04.998Z,972.9
2023-02-16T09:33:04.862Z,972.88
2023-02-16T09:34:04.811Z,972.87
2023-02-16T09:35:04.874Z,972.93
2023-02-16T09:36:05.197Z,972.92
2023-02-16T09:37:04.805Z,972.91
2023-02-16T09:39:04.865Z,972.9
2023-02-16T09:40:04.799Z,972.88
2023-02-16T09:41:04.810Z,972.9
2023-02-16T09:42:04.863Z,972.93
2023-02-16T09:43:04.798Z,972.94
2023-02-16T09:44:04.751Z,972.93
2023-02-16T09:45:04.793Z,972.97
2023-02-16T09:47:05.028Z,972.95
2023-02-16T09:48:04.898Z,972.92
2023-02-16T09:49:04.794Z,972.89
2023-02-16T09:50:04.874Z,972.86
2023-02-16T09:51:04.880Z,972.85
2023-02-16T09:52:04.867Z,972.83
2023-02-16T09:53:04.892Z,972.88
2023-02-16T09:54:04.783Z,972.89
2023-02-16T09:55:04.917Z,972.85
2023-02-16T09:57:04.889Z,972.86
2023-02-16T09:58:04.925Z,972.85
2023-02-16T09:59:04.857Z,972.84
2023-02-16T10:04:45.821Z,972.82
2023-02-16T10:05:43.654Z,972.84
2023-02-16T10:06:43.668Z,972.87
2023-02-16T10:07:43.694Z,972.86
2023-02-16T10:08:43.731Z,972.83
2023-02-16T10:09:43.702Z,972.84
2023-02-16T10:10:43.668Z,972.82
2023-02-16T10:11:43.746Z,972.85
2023-02-16T10:12:43.694Z,972.88
2023-02-16T10:13:43.798Z,972.86
2023-02-16T10:15:43.715Z,972.84
2023-02-16T10:16:43.692Z,972.82
2023-02-16T10:17:43.628Z,972.87
2023-02-16T10:18:43.850Z,972.85
2023-02-16T10:21:43.877Z,972.87
2023-02-16T10:22:43.827Z,972.83
2023-02-16T10:23:43.756Z,972.84
2023-02-16T10:24:43.930Z,972.83
2023-02-16T10:25:43.711Z,972.82
2023-02-16T10:26:45.019Z,972.84
2023-02-16T10:27:43.731Z,972.82
2023-02-16T10:28:43.714Z,972.86
2023-02-16T10:29:43.870Z,972.8
2023-02-16T10:32:44.250Z,972.82
2023-02-16T10:34:43.916Z,972.78
2023-02-16T10:35:43.788Z,972.8
2023-02-16T10:36:43.863Z,972.79
2023-02-16T10:37:43.814Z,972.76
2023-02-16T10:38:43.859Z,972.73
2023-02-16T10:39:43.856Z,972.74
2023-02-16T10:40:43.877Z,972.72
2023-02-16T10:41:43.773Z,972.7
2023-02-16T10:42:43.865Z,972.67
2023-02-16T10:43:43.934Z,972.65
2023-02-16T10:45:44.411Z,972.66
2023-02-16T10:47:43.779Z,972.59
2023-02-16T10:48:43.797Z,972.61
2023-02-16T10:49:43.809Z,972.57
2023-02-16T10:50:43.815Z,972.55
2023-02-16T10:51:43.793Z,972.57
2023-02-16T10:52:43.895Z,972.58
2023-02-16T10:53:43.851Z,972.62
2023-02-16T10:55:43.854Z,972.58
2023-02-16T10:56:43.832Z,972.57
2023-02-16T11:00:43.966Z,972.53
2023-02-16T11:02:43.998Z,972.51
2023-02-16T11:03:43.881Z,972.54
2023-02-16T11:04:44.011Z,972.51
2023-02-16T11:05:43.927Z,972.49
2023-02-16T11:06:43.987Z,972.5
2023-02-16T11:07:43.948Z,972.51
2023-02-16T11:08:43.943Z,972.47
2023-02-16T11:09:43.944Z,972.45
2023-02-16T11:10:44.045Z,972.46
2023-02-16T11:12:43.932Z,972.44
2023-02-16T11:13:43.930Z,972.42
2023-02-16T11:14:44.005Z,972.43
2023-02-16T11:16:43.882Z,972.45
2023-02-16T11:19:44.059Z,972.41
2023-02-16T11:20:43.830Z,972.42
2023-02-16T11:21:43.864Z,972.36
2023-02-16T11:23:43.918Z,972.32
2023-02-16T11:24:44.042Z,972.33
2023-02-16T11:25:44.122Z,972.26
2023-02-16T11:26:43.957Z,972.27
2023-02-16T11:27:43.893Z,972.28
2023-02-16T11:28:44.076Z,972.27
2023-02-16T11:29:43.883Z,972.26
2023-02-16T11:30:43.965Z,972.22
2023-02-16T11:31:44.152Z,972.2
2023-02-16T11:32:43.979Z,972.19
2023-02-16T11:35:43.920Z,972.13
2023-02-16T11:38:44.035Z,972.06
2023-02-16T11:39:44.111Z,972.08
2023-02-16T11:40:44.085Z,972.01
2023-02-16T11:41:43.916Z,972.06
2023-02-16T11:42:44.120Z,972.07
2023-02-16T11:43:43.894Z,972.09
2023-02-16T11:44:43.987Z,972.1
2023-02-16T11:45:43.944Z,972.11
2023-02-16T11:46:44.081Z,972.07
2023-02-16T11:47:43.984Z,972.08
2023-02-16T11:49:44.016Z,972.09
2023-02-16T11:50:44.010Z,972.08
2023-02-16T11:51:44.098Z,972.05
2023-02-16T11:53:43.999Z,972.03
2023-02-16T11:54:44.022Z,971.99
2023-02-16T11:55:44.070Z,971.96
2023-02-16T11:56:45.020Z,971.93
2023-02-16T11:57:43.955Z,971.89
2023-02-16T11:58:44.085Z,971.93
2023-02-16T11:59:44.028Z,971.91
2023-02-16T12:01:44.086Z,971.89
2023-02-16T12:02:43.997Z,971.88
2023-02-16T12:03:44.069Z,971.87
2023-02-16T12:04:44.110Z,971.89
2023-02-16T12:05:44.046Z,971.87
2023-02-16T12:06:44.014Z,971.84
2023-02-16T12:07:44.066Z,971.76
2023-02-16T12:08:44.071Z,971.73
2023-02-16T12:09:44.128Z,971.74
2023-02-16T12:12:44.079Z,971.71
2023-02-16T12:13:44.088Z,971.7
2023-02-16T12:15:44.131Z,971.67
2023-02-16T12:17:44.056Z,971.69
2023-02-16T12:18:44.151Z,971.66
2023-02-16T12:20:44.015Z,971.64
2023-02-16T12:21:44.062Z,971.62
2023-02-16T12:22:44.006Z,971.57
2023-02-16T12:23:44.027Z,971.55
2023-02-16T12:24:44.080Z,971.54
2023-02-16T12:25:44.018Z,971.55
2023-02-16T12:26:44.140Z,971.5
2023-02-16T12:27:44.039Z,971.54
2023-02-16T12:28:44.002Z,971.52
2023-02-16T12:29:44.079Z,971.53
2023-02-16T12:30:44.083Z,971.5
2023-02-16T12:32:44.207Z,971.49
2023-02-16T12:33:44.194Z,971.51
2023-02-16T12:34:44.105Z,971.46
2023-02-16T12:36:44.200Z,971.43
2023-02-16T12:38:44.734Z,971.44
2023-02-16T12:39:44.088Z,971.4
2023-02-16T12:40:44.101Z,971.42
2023-02-16T12:41:44.164Z,971.41
2023-02-16T12:42:44.029Z,971.4
2023-02-16T12:43:44.091Z,971.42
2023-02-16T12:44:44.182Z,971.41
2023-02-16T12:45:44.192Z,971.39
2023-02-16T12:46:44.257Z,971.35
2023-02-16T12:47:44.259Z,971.36
2023-02-16T12:49:44.151Z,971.35
2023-02-16T12:50:44.054Z,971.33
2023-02-16T12:51:44.089Z,971.36
2023-02-16T12:52:44.090Z,971.33
2023-02-16T12:53:44.164Z,971.31
2023-02-16T12:54:44.197Z,971.27
2023-02-16T12:55:44.110Z,971.22
2023-02-16T12:56:44.188Z,971.16
2023-02-16T12:58:44.245Z,971.13
2023-02-16T12:59:44.201Z,971.14
2023-02-16T13:00:44.135Z,971.15
2023-02-16T13:01:44.137Z,971.14
2023-02-16T13:02:44.205Z,971.12
2023-02-16T13:03:44.182Z,971.11
2023-02-16T13:04:44.110Z,971.12
2023-02-16T13:05:44.216Z,971.13
2023-02-16T13:07:44.128Z,971.11
2023-02-16T13:08:44.131Z,971.04
2023-02-16T13:10:44.254Z,970.98
2023-02-16T13:11:44.168Z,970.93
2023-02-16T13:12:44.189Z,970.94
2023-02-16T13:13:44.121Z,970.9
2023-02-16T13:14:44.146Z,970.91
2023-02-16T13:16:44.329Z,970.95
2023-02-16T13:17:44.192Z,970.93
2023-02-16T13:18:44.302Z,970.92
2023-02-16T13:19:44.362Z,970.89
2023-02-16T13:20:44.127Z,970.91
2023-02-16T13:21:50.749Z,970.92
2023-02-16T13:22:44.393Z,970.87
2023-02-16T13:24:44.224Z,970.88
2023-02-16T13:26:44.204Z,970.83
2023-02-16T13:27:44.167Z,970.84
2023-02-16T13:28:44.414Z,970.83
2023-02-16T13:29:44.307Z,970.82
2023-02-16T13:30:44.359Z,970.79
2023-02-16T13:31:44.330Z,970.8
2023-02-16T13:32:44.224Z,970.86
2023-02-16T13:33:44.205Z,970.78
2023-02-16T13:34:44.315Z,970.79
2023-02-16T13:35:44.383Z,970.69
2023-02-16T13:36:44.275Z,970.71
2023-02-16T13:37:44.339Z,970.66
2023-02-16T13:38:44.350Z,970.68
2023-02-16T13:39:44.276Z,970.65
2023-02-16T13:40:44.281Z,970.66
2023-02-16T13:41:44.218Z,970.62
2023-02-16T13:42:44.401Z,970.58
2023-02-16T13:44:44.790Z,970.57
2023-02-16T13:46:44.311Z,970.54
2023-02-16T13:47:44.370Z,970.5
2023-02-16T13:48:44.260Z,970.49
2023-02-16T13:49:44.324Z,970.51
2023-02-16T13:51:44.341Z,970.47
2023-02-16T13:52:44.223Z,970.43
2023-02-16T13:53:44.237Z,970.41
2023-02-16T13:54:44.394Z,970.39
2023-02-16T13:55:44.255Z,970.4
2023-02-16T13:56:45.517Z,970.39
2023-02-16T13:57:44.650Z,970.35
2023-02-16T13:58:44.302Z,970.33
2023-02-16T13:59:44.295Z,970.31
2023-02-16T14:00:44.327Z,970.3
2023-02-16T14:01:44.334Z,970.34
2023-02-16T14:02:44.311Z,970.33
2023-02-16T14:03:44.369Z,970.28
2023-02-16T14:04:44.391Z,970.23
2023-02-16T14:06:44.380Z,970.22
2023-02-16T14:07:44.379Z,970.19
2023-02-16T14:08:44.571Z,970.12
2023-02-16T14:09:44.325Z,970.09
2023-02-16T14:10:44.364Z,970.08
2023-02-16T14:11:44.286Z,970.09
2023-02-16T14:12:44.433Z,970.13
2023-02-16T14:13:44.333Z,970.16
2023-02-16T14:14:44.489Z,970.17
2023-02-16T14:15:44.362Z,970.12
2023-02-16T14:16:44.297Z,970.15
2023-02-16T14:17:44.388Z,970.1
2023-02-16T14:18:44.415Z,970.06
2023-02-16T14:19:44.356Z,970.09
2023-02-16T14:22:44.331Z,970.11
2023-02-16T14:24:44.349Z,970.12
2023-02-16T14:25:44.372Z,970.14
2023-02-16T14:26:44.538Z,970.16
2023-02-16T14:27:44.326Z,970.15
2023-02-16T14:28:44.396Z,970.18
2023-02-16T14:29:44.466Z,970.16
2023-02-16T14:30:44.512Z,970.12
2023-02-16T14:31:44.537Z,970.11
2023-02-16T14:32:44.493Z,970.1
2023-02-16T14:34:44.493Z,970.11
2023-02-16T14:35:44.440Z,970.17
2023-02-16T14:36:44.391Z,970.15
2023-02-16T14:37:44.367Z,970.21
2023-02-16T14:38:44.403Z,970.14
2023-02-16T14:40:06.356Z,970.1
2023-02-16T14:40:44.716Z,970.08
2023-02-16T14:41:44.321Z,970.07
2023-02-16T14:42:44.472Z,970.02
2023-02-16T14:43:44.399Z,970.01
2023-02-16T14:45:44.386Z,970.02
2023-02-16T14:46:44.486Z,970.07
2023-02-16T14:47:44.446Z,970.04
2023-02-16T14:48:44.412Z,970.07
2023-02-16T14:49:44.441Z,970.06
2023-02-16T14:50:45.784Z,970.04
2023-02-16T14:51:44.427Z,970.08
2023-02-16T14:52:44.533Z,970.11
2023-02-16T14:53:44.532Z,970.1
2023-02-16T14:54:44.431Z,970.09
2023-02-16T14:55:44.510Z,970.08
2023-02-16T14:56:44.386Z,970.14
2023-02-16T14:57:44.417Z,970.21
2023-02-16T14:58:44.552Z,970.15
2023-02-16T14:59:44.423Z,970.17
2023-02-16T15:00:44.512Z,970.19
2023-02-16T15:01:44.575Z,970.17
2023-02-16T15:02:44.514Z,970.21
2023-02-16T15:03:44.577Z,970.16
2023-02-16T15:05:44.384Z,970.22
2023-02-16T15:06:44.444Z,970.16
2023-02-16T15:07:44.506Z,970.22